Adventure of The Seas — C6SA3 — position and weather

sailwx.info

Track history (hours):
 
Tides and Currents Weather Stations Pressure Air Temp Water Temp Dewpoint Dewpoint Depression Visibility Wind Speed Wind Dir Waves Ship Positions

Adventure of The Seas

Operator: Royal Caribbean Cruises Ltd

Last reported at 2018-Jul-20 23:44 UTC. Time now 2018-Jul-22 03:20 UTC.
Position N 39°27' W 073°55'.

Type: Passenger vessel. MMSI: 311263000.

Date/timePositionNaut miles runAvg speedWind from/ knotsBaromVisibWave heightAir tempDewpointWater temp
2018-Jul-20 23:44N 39°27' W 073°55'619.9
2018-Jul-20 23:28N 39°33' W 073°53'919.9
2018-Jul-20 23:00N 39°42' W 073°52'1019.7
2018-Jul-20 22:31N 39°52' W 073°51'3717.2
2018-Jul-20 20:23N 40°28' W 073°52'615.8
2018-Jul-20 20:00N 40°31' W 073°60'714.0
2018-Jul-20 19:30N 40°37' W 074°03'3 4.0
2018-Jul-20 18:50N 40°40' W 074°04'0 0.0
2018-Jul-20 18:29N 40°40' W 074°04'0 0.0
2018-Jul-20 17:59N 40°40' W 074°04'0 0.0
2018-Jul-20 17:29N 40°40' W 074°04'0 0.0
2018-Jul-20 16:59N 40°40' W 074°04'0 0.0
2018-Jul-20 16:29N 40°40' W 074°04'0 0.0
2018-Jul-20 15:59N 40°40' W 074°04'0 0.0
2018-Jul-20 15:29N 40°40' W 074°04'0 0.0
2018-Jul-20 14:53N 40°40' W 074°04'0 0.0
2018-Jul-20 14:29N 40°40' W 074°04'0 0.0
2018-Jul-20 13:59N 40°40' W 074°04'0 0.0
2018-Jul-20 13:29N 40°40' W 074°04'0 0.0
2018-Jul-20 12:59N 40°40' W 074°04'0 0.0
2018-Jul-20 12:29N 40°40' W 074°04'0 0.0
2018-Jul-20 11:56N 40°40' W 074°04'0 0.0
2018-Jul-20 11:29N 40°40' W 074°04'0 0.0
2018-Jul-20 10:59N 40°40' W 074°04'0 0.0
2018-Jul-20 10:29N 40°40' W 074°04'0 0.0
2018-Jul-20 10:00N 40°40' W 074°04'1 2.4
2018-Jul-20 09:30N 40°39' W 074°03'510.9
2018-Jul-20 09:01N 40°34' W 074°02'713.9
2018-Jul-20 08:31N 40°29' W 073°55'612.1
2018-Jul-20 08:01N 40°26' W 073°48'4 7.6
2018-Jul-20 07:30N 40°22' W 073°47'714.2
2018-Jul-20 07:00N 40°15' W 073°45'816.4
2018-Jul-20 06:30N 40°07' W 073°44'918.5
2018-Jul-20 06:00N 39°58' W 073°43'918.5
2018-Jul-20 05:30N 39°49' W 073°40'918.2
2018-Jul-20 05:01N 39°40' W 073°40'1018.5
2018-Jul-20 04:27N 39°30' W 073°43'818.5
2018-Jul-20 04:00N 39°22' W 073°45'918.4
2018-Jul-20 03:30N 39°13' W 073°47'  
2018-Jul-14 06:06N 37°15' W 074°35'221.5
2018-Jul-14 06:00N 37°17' W 074°34'1221.5
2018-Jul-14 05:26N 37°29' W 074°31'921.2
2018-Jul-14 05:00N 37°38' W 074°28'1121.2
2018-Jul-14 04:30N 37°48' W 074°25'1021.0
2018-Jul-14 04:00N 37°59' W 074°22'1020.9
2018-Jul-14 03:31N 38°09' W 074°21'1020.1
2018-Jul-14 03:00N 38°18' W 074°16'1120.6
2018-Jul-14 02:30N 38°28' W 074°12'1020.4
2018-Jul-14 02:01N 38°38' W 074°09'1020.2
2018-Jul-14 01:30N 38°48' W 074°07'1019.8
2018-Jul-14 00:59N 38°58' W 074°04'919.4
2018-Jul-14 00:30N 39°07' W 074°01'1019.7
2018-Jul-13 23:59N 39°17' W 073°58'1119.5
2018-Jul-13 23:25N 39°28' W 073°54'819.4
2018-Jul-13 23:00N 39°36' W 073°53'1019.3
2018-Jul-13 22:30N 39°45' W 073°52'1019.4
2018-Jul-13 22:00N 39°55' W 073°51'1519.3
2018-Jul-13 21:15N 40°09' W 073°49'519.4
2018-Jul-13 21:00N 40°14' W 073°49'919.0
2018-Jul-13 20:30N 40°24' W 073°49'611.8
2018-Jul-13 20:01N 40°29' W 073°53'815.5
2018-Jul-13 19:30N 40°33' W 074°02'714.3
2018-Jul-13 19:00N 40°40' W 074°04'0 0.4
2018-Jul-13 18:25N 40°40' W 074°04'0 0.0
2018-Jul-13 17:58N 40°40' W 074°04'0 0.0
2018-Jul-13 17:28N 40°40' W 074°04'0 0.0
2018-Jul-13 16:58N 40°40' W 074°04'0 0.0
2018-Jul-13 16:28N 40°40' W 074°04'0 0.0
2018-Jul-13 15:58N 40°40' W 074°04'0 0.0
2018-Jul-13 15:28N 40°40' W 074°04'0 0.0
2018-Jul-13 14:58N 40°40' W 074°04'0 0.0
2018-Jul-13 13:58N 40°40' W 074°04'0 0.0
2018-Jul-13 13:28N 40°40' W 074°04'0 0.0
2018-Jul-13 12:58N 40°40' W 074°04'0 0.0
2018-Jul-13 12:28N 40°40' W 074°04'0 0.0
2018-Jul-13 11:58N 40°40' W 074°04'0 0.0
2018-Jul-13 11:28N 40°40' W 074°04'0 0.0
2018-Jul-13 10:52N 40°40' W 074°04'0 0.0
2018-Jul-13 10:28N 40°40' W 074°04'0 0.0
2018-Jul-13 10:00N 40°40' W 074°04'1 1.5
2018-Jul-13 09:30N 40°39' W 074°03'4 7.8
2018-Jul-13 09:00N 40°36' W 074°02'713.1
2018-Jul-13 08:30N 40°30' W 073°57'713.6
2018-Jul-13 08:00N 40°28' W 073°49'611.2
2018-Jul-13 07:31N 40°22' W 073°47'714.7
2018-Jul-13 07:00N 40°15' W 073°45'815.4
2018-Jul-13 06:30N 40°07' W 073°44'815.9
2018-Jul-13 06:00N 39°60' W 073°43'918.5
2018-Jul-13 05:30N 39°50' W 073°41'918.0
2018-Jul-13 05:00N 39°42' W 073°40'918.3
2018-Jul-13 04:31N 39°33' W 073°42'918.4
2018-Jul-13 04:01N 39°24' W 073°45'918.4
2018-Jul-13 03:31N 39°15' W 073°47'815.4
2018-Jul-13 03:00N 39°07' W 073°49'918.5
2018-Jul-13 02:31N 38°58' W 073°51'1020.2
2018-Jul-13 02:00N 38°48' W 073°54'1020.1
2018-Jul-13 01:31N 38°38' W 073°56'1020.0
2018-Jul-13 01:01N 38°28' W 073°59'1020.2
2018-Jul-13 00:30N 38°18' W 074°01'1020.0
2018-Jul-13 00:00N 38°09' W 074°04'1819.8
2018-Jul-12 23:04N 37°50' W 074°08'  
Track history (hours):
 
Tides and Currents Weather Stations Pressure Air Temp Water Temp Dewpoint Dewpoint Depression Visibility Wind Speed Wind Dir Waves Ship Positions

Adventure of The Seas

Operator: Royal Caribbean Cruises Ltd

Last reported at 2018-Jul-20 23:44 UTC. Time now 2018-Jul-22 03:20 UTC.
Position N 39°27' W 073°55'.

Type: Passenger vessel. MMSI: 311263000.

Date/timePositionNaut miles runAvg speedWind from/ knotsBaromVisibWave heightAir tempDewpointWater temp
2018-Jul-20 23:44N 39°27' W 073°55'619.9
2018-Jul-20 23:28N 39°33' W 073°53'919.9
2018-Jul-20 23:00N 39°42' W 073°52'1019.7
2018-Jul-20 22:31N 39°52' W 073°51'3717.2
2018-Jul-20 20:23N 40°28' W 073°52'615.8
2018-Jul-20 20:00N 40°31' W 073°60'714.0
2018-Jul-20 19:30N 40°37' W 074°03'3 4.0
2018-Jul-20 18:50N 40°40' W 074°04'0 0.0
2018-Jul-20 18:29N 40°40' W 074°04'0 0.0
2018-Jul-20 17:59N 40°40' W 074°04'0 0.0
2018-Jul-20 17:29N 40°40' W 074°04'0 0.0
2018-Jul-20 16:59N 40°40' W 074°04'0 0.0
2018-Jul-20 16:29N 40°40' W 074°04'0 0.0
2018-Jul-20 15:59N 40°40' W 074°04'0 0.0
2018-Jul-20 15:29N 40°40' W 074°04'0 0.0
2018-Jul-20 14:53N 40°40' W 074°04'0 0.0
2018-Jul-20 14:29N 40°40' W 074°04'0 0.0
2018-Jul-20 13:59N 40°40' W 074°04'0 0.0
2018-Jul-20 13:29N 40°40' W 074°04'0 0.0
2018-Jul-20 12:59N 40°40' W 074°04'0 0.0
2018-Jul-20 12:29N 40°40' W 074°04'0 0.0
2018-Jul-20 11:56N 40°40' W 074°04'0 0.0
2018-Jul-20 11:29N 40°40' W 074°04'0 0.0
2018-Jul-20 10:59N 40°40' W 074°04'0 0.0
2018-Jul-20 10:29N 40°40' W 074°04'0 0.0
2018-Jul-20 10:00N 40°40' W 074°04'1 2.4
2018-Jul-20 09:30N 40°39' W 074°03'510.9
2018-Jul-20 09:01N 40°34' W 074°02'713.9
2018-Jul-20 08:31N 40°29' W 073°55'612.1
2018-Jul-20 08:01N 40°26' W 073°48'4 7.6
2018-Jul-20 07:30N 40°22' W 073°47'714.2
2018-Jul-20 07:00N 40°15' W 073°45'816.4
2018-Jul-20 06:30N 40°07' W 073°44'918.5
2018-Jul-20 06:00N 39°58' W 073°43'918.5
2018-Jul-20 05:30N 39°49' W 073°40'918.2
2018-Jul-20 05:01N 39°40' W 073°40'1018.5
2018-Jul-20 04:27N 39°30' W 073°43'818.5
2018-Jul-20 04:00N 39°22' W 073°45'918.4
2018-Jul-20 03:30N 39°13' W 073°47'  
2018-Jul-14 06:06N 37°15' W 074°35'221.5
2018-Jul-14 06:00N 37°17' W 074°34'1221.5
2018-Jul-14 05:26N 37°29' W 074°31'921.2
2018-Jul-14 05:00N 37°38' W 074°28'1121.2
2018-Jul-14 04:30N 37°48' W 074°25'1021.0
2018-Jul-14 04:00N 37°59' W 074°22'1020.9
2018-Jul-14 03:31N 38°09' W 074°21'1020.1
2018-Jul-14 03:00N 38°18' W 074°16'1120.6
2018-Jul-14 02:30N 38°28' W 074°12'1020.4
2018-Jul-14 02:01N 38°38' W 074°09'1020.2
2018-Jul-14 01:30N 38°48' W 074°07'1019.8
2018-Jul-14 00:59N 38°58' W 074°04'919.4
2018-Jul-14 00:30N 39°07' W 074°01'1019.7
2018-Jul-13 23:59N 39°17' W 073°58'1119.5
2018-Jul-13 23:25N 39°28' W 073°54'819.4
2018-Jul-13 23:00N 39°36' W 073°53'1019.3
2018-Jul-13 22:30N 39°45' W 073°52'1019.4
2018-Jul-13 22:00N 39°55' W 073°51'1519.3
2018-Jul-13 21:15N 40°09' W 073°49'519.4
2018-Jul-13 21:00N 40°14' W 073°49'919.0
2018-Jul-13 20:30N 40°24' W 073°49'611.8
2018-Jul-13 20:01N 40°29' W 073°53'815.5
2018-Jul-13 19:30N 40°33' W 074°02'714.3
2018-Jul-13 19:00N 40°40' W 074°04'0 0.4
2018-Jul-13 18:25N 40°40' W 074°04'0 0.0
2018-Jul-13 17:58N 40°40' W 074°04'0 0.0
2018-Jul-13 17:28N 40°40' W 074°04'0 0.0
2018-Jul-13 16:58N 40°40' W 074°04'0 0.0
2018-Jul-13 16:28N 40°40' W 074°04'0 0.0
2018-Jul-13 15:58N 40°40' W 074°04'0 0.0
2018-Jul-13 15:28N 40°40' W 074°04'0 0.0
2018-Jul-13 14:58N 40°40' W 074°04'0 0.0
2018-Jul-13 13:58N 40°40' W 074°04'0 0.0
2018-Jul-13 13:28N 40°40' W 074°04'0 0.0
2018-Jul-13 12:58N 40°40' W 074°04'0 0.0
2018-Jul-13 12:28N 40°40' W 074°04'0 0.0
2018-Jul-13 11:58N 40°40' W 074°04'0 0.0
2018-Jul-13 11:28N 40°40' W 074°04'0 0.0
2018-Jul-13 10:52N 40°40' W 074°04'0 0.0
2018-Jul-13 10:28N 40°40' W 074°04'0 0.0
2018-Jul-13 10:00N 40°40' W 074°04'1 1.5
2018-Jul-13 09:30N 40°39' W 074°03'4 7.8
2018-Jul-13 09:00N 40°36' W 074°02'713.1
2018-Jul-13 08:30N 40°30' W 073°57'713.6
2018-Jul-13 08:00N 40°28' W 073°49'611.2
2018-Jul-13 07:31N 40°22' W 073°47'714.7
2018-Jul-13 07:00N 40°15' W 073°45'815.4
2018-Jul-13 06:30N 40°07' W 073°44'815.9
2018-Jul-13 06:00N 39°60' W 073°43'918.5
2018-Jul-13 05:30N 39°50' W 073°41'918.0
2018-Jul-13 05:00N 39°42' W 073°40'918.3
2018-Jul-13 04:31N 39°33' W 073°42'918.4
2018-Jul-13 04:01N 39°24' W 073°45'918.4
2018-Jul-13 03:31N 39°15' W 073°47'815.4
2018-Jul-13 03:00N 39°07' W 073°49'918.5
2018-Jul-13 02:31N 38°58' W 073°51'1020.2
2018-Jul-13 02:00N 38°48' W 073°54'1020.1
2018-Jul-13 01:31N 38°38' W 073°56'1020.0
2018-Jul-13 01:01N 38°28' W 073°59'1020.2
2018-Jul-13 00:30N 38°18' W 074°01'1020.0
2018-Jul-13 00:00N 38°09' W 074°04'1819.8
2018-Jul-12 23:04N 37°50' W 074°08'  

Dump ship's entire track history